createdAt,value
2024-03-30T00:00:27.945Z,1.40
2024-03-30T00:01:25.904Z,1.40
2024-03-30T00:02:25.808Z,1.50
2024-03-30T00:03:25.787Z,1.30
2024-03-30T00:04:25.776Z,1.30
2024-03-30T00:05:25.788Z,1.60
2024-03-30T00:06:25.755Z,1.20
2024-03-30T00:07:25.751Z,1.00
2024-03-30T00:08:25.731Z,1.40
2024-03-30T00:09:25.730Z,1.30
2024-03-30T00:10:25.745Z,1.30
2024-03-30T00:11:25.698Z,1.20
2024-03-30T00:12:25.683Z,1.10
2024-03-30T00:13:25.737Z,1.30
2024-03-30T00:14:25.668Z,1.10
2024-03-30T00:15:25.670Z,1.10
2024-03-30T00:16:25.642Z,1.40
2024-03-30T00:17:25.661Z,1.30
2024-03-30T00:18:25.626Z,1.10
2024-03-30T00:19:25.650Z,1.10
2024-03-30T00:20:25.636Z,1.10
2024-03-30T00:21:25.581Z,1.30
2024-03-30T00:22:25.590Z,1.10
2024-03-30T00:23:25.588Z,1.00
2024-03-30T00:24:25.576Z,1.20
2024-03-30T00:25:25.532Z,1.10
2024-03-30T00:26:25.562Z,1.10
2024-03-30T00:27:25.550Z,1.80
2024-03-30T00:28:25.546Z,1.20
2024-03-30T00:29:25.527Z,0.80
2024-03-30T00:30:25.498Z,1.40
2024-03-30T00:31:25.480Z,1.10
2024-03-30T00:32:25.458Z,1.20
2024-03-30T00:33:25.474Z,1.00
2024-03-30T00:34:25.458Z,1.40
2024-03-30T00:35:25.530Z,1.10
2024-03-30T00:36:25.426Z,1.20
2024-03-30T00:37:25.418Z,1.00
2024-03-30T00:38:25.443Z,1.20
2024-03-30T00:39:25.410Z,1.00
2024-03-30T00:40:25.427Z,1.10
2024-03-30T00:41:25.399Z,1.20
2024-03-30T00:42:25.369Z,1.20
2024-03-30T00:43:25.382Z,1.00
2024-03-30T00:44:25.367Z,1.10
2024-03-30T00:45:25.320Z,1.20
2024-03-30T00:46:25.351Z,1.20
2024-03-30T00:47:34.267Z,1.00
2024-03-30T00:48:25.327Z,1.50
2024-03-30T00:49:25.293Z,1.10
2024-03-30T00:50:25.293Z,1.40
2024-03-30T00:51:25.284Z,0.80
2024-03-30T00:52:25.266Z,1.10
2024-03-30T00:53:25.278Z,1.20
2024-03-30T00:54:25.227Z,0.90
2024-03-30T00:55:25.230Z,1.30
2024-03-30T00:56:25.224Z,1.20
2024-03-30T00:57:25.226Z,1.50
2024-03-30T00:58:25.194Z,1.10
2024-03-30T00:59:25.210Z,0.90
2024-03-30T01:00:25.179Z,1.00
2024-03-30T01:01:25.169Z,1.00
2024-03-30T01:02:25.169Z,1.00
2024-03-30T01:03:25.153Z,1.10
2024-03-30T01:04:25.123Z,1.10
2024-03-30T01:05:25.127Z,1.00
2024-03-30T01:06:25.119Z,1.00
2024-03-30T01:07:25.128Z,1.20
2024-03-30T01:08:25.110Z,1.50
2024-03-30T01:09:25.086Z,1.00
2024-03-30T01:10:25.065Z,1.10
2024-03-30T01:11:25.070Z,1.00
2024-03-30T01:12:25.054Z,0.90
2024-03-30T01:13:25.051Z,1.60
2024-03-30T01:14:25.058Z,0.90
2024-03-30T01:15:25.059Z,1.40
2024-03-30T01:16:25.100Z,0.90
2024-03-30T01:17:25.027Z,0.90
2024-03-30T01:18:24.993Z,1.00
2024-03-30T01:19:25.019Z,1.20
2024-03-30T01:20:25.005Z,1.00
2024-03-30T01:21:24.961Z,1.30
2024-03-30T01:22:25.001Z,1.00
2024-03-30T01:23:24.953Z,1.40
2024-03-30T01:24:24.964Z,1.30
2024-03-30T01:25:24.928Z,1.20
2024-03-30T01:26:24.912Z,1.30
2024-03-30T01:27:24.889Z,1.40
2024-03-30T01:28:24.900Z,1.00
2024-03-30T01:29:24.918Z,1.30
2024-03-30T01:30:24.925Z,1.50
2024-03-30T01:31:24.918Z,1.60
2024-03-30T01:32:24.846Z,0.90
2024-03-30T01:33:24.831Z,1.40
2024-03-30T01:34:24.896Z,1.10
2024-03-30T01:35:24.855Z,1.40
2024-03-30T01:36:24.799Z,1.40
2024-03-30T01:37:24.798Z,0.90
2024-03-30T01:38:24.774Z,1.00
2024-03-30T01:39:24.832Z,0.90
2024-03-30T01:40:24.767Z,1.40
2024-03-30T01:41:24.762Z,1.20
2024-03-30T01:42:24.753Z,1.30
2024-03-30T01:43:24.785Z,1.40
2024-03-30T01:44:24.781Z,1.10
2024-03-30T01:45:24.845Z,1.40
2024-03-30T01:46:24.839Z,1.30
2024-03-30T01:47:24.821Z,1.00
2024-03-30T01:48:24.851Z,1.30
2024-03-30T01:49:24.792Z,1.40
2024-03-30T01:50:24.647Z,1.30
2024-03-30T01:51:24.661Z,2.60
2024-03-30T01:52:24.640Z,2.50
2024-03-30T01:53:24.636Z,2.20
2024-03-30T01:54:24.650Z,1.90
2024-03-30T01:55:24.596Z,1.50
2024-03-30T01:56:24.617Z,1.80
2024-03-30T01:57:24.584Z,1.60
2024-03-30T01:58:24.602Z,1.80
2024-03-30T01:59:24.554Z,1.50
2024-03-30T02:00:24.538Z,1.50
2024-03-30T02:01:24.558Z,1.50
2024-03-30T02:02:24.555Z,1.50
2024-03-30T02:03:24.565Z,1.20
2024-03-30T02:04:24.514Z,1.50
2024-03-30T02:05:24.529Z,1.90
2024-03-30T02:06:24.495Z,1.20
2024-03-30T02:07:24.492Z,1.50
2024-03-30T02:08:24.483Z,1.40
2024-03-30T02:09:24.452Z,1.60
2024-03-30T02:10:24.445Z,1.70
2024-03-30T02:11:24.442Z,1.40
2024-03-30T02:12:24.439Z,3.10
2024-03-30T02:13:24.454Z,1.80
2024-03-30T02:14:24.428Z,1.70
2024-03-30T02:15:24.399Z,1.30
2024-03-30T02:16:24.398Z,1.50
2024-03-30T02:17:24.434Z,1.40
2024-03-30T02:18:24.404Z,1.70
2024-03-30T02:19:24.369Z,1.30
2024-03-30T02:20:24.334Z,1.50
2024-03-30T02:21:24.367Z,1.60
2024-03-30T02:22:24.319Z,2.40
2024-03-30T02:23:24.312Z,1.50
2024-03-30T02:24:24.283Z,1.60
2024-03-30T02:25:24.327Z,1.70
2024-03-30T02:26:24.285Z,1.60
2024-03-30T02:27:24.260Z,1.30
2024-03-30T02:28:24.281Z,1.30
2024-03-30T02:29:24.270Z,1.20
2024-03-30T02:30:24.283Z,1.40
2024-03-30T02:31:24.314Z,1.80
2024-03-30T02:32:24.210Z,1.60
2024-03-30T02:33:24.243Z,1.40
2024-03-30T02:34:24.191Z,2.20
2024-03-30T02:35:24.201Z,1.50
2024-03-30T02:36:24.187Z,1.80
2024-03-30T02:37:24.165Z,2.00
2024-03-30T02:38:24.157Z,1.40
2024-03-30T02:39:24.140Z,1.20
2024-03-30T02:40:24.154Z,1.90
2024-03-30T02:41:24.120Z,1.10
2024-03-30T02:42:24.111Z,1.40
2024-03-30T02:43:24.106Z,1.40
2024-03-30T02:44:24.121Z,1.60
2024-03-30T02:45:24.353Z,1.20
2024-03-30T02:46:24.050Z,1.20
2024-03-30T02:47:24.145Z,1.10
2024-03-30T02:48:24.051Z,1.30
2024-03-30T02:49:24.042Z,1.30
2024-03-30T02:50:24.046Z,1.70
2024-03-30T02:51:24.043Z,1.50
2024-03-30T02:52:24.015Z,1.50
2024-03-30T02:53:23.981Z,1.70
2024-03-30T02:54:24.068Z,1.00
2024-03-30T02:55:24.011Z,1.60
2024-03-30T02:56:23.973Z,1.40
2024-03-30T02:57:23.993Z,1.30
2024-03-30T02:58:23.955Z,1.30
2024-03-30T02:59:23.964Z,2.60
2024-03-30T03:00:23.918Z,1.40
2024-03-30T03:01:23.938Z,1.60
2024-03-30T03:02:23.910Z,1.60
2024-03-30T03:03:23.902Z,1.70
2024-03-30T03:04:23.867Z,1.60
2024-03-30T03:05:23.915Z,1.70
2024-03-30T03:06:23.852Z,1.50
2024-03-30T03:07:23.833Z,1.50
2024-03-30T03:08:23.844Z,1.50
2024-03-30T03:09:23.840Z,1.80
2024-03-30T03:10:23.800Z,1.30
2024-03-30T03:11:23.790Z,1.10
2024-03-30T03:12:23.818Z,1.30
2024-03-30T03:13:23.803Z,1.20
2024-03-30T03:14:23.753Z,1.30
2024-03-30T03:15:23.747Z,1.50
2024-03-30T03:16:23.781Z,1.00
2024-03-30T03:17:23.748Z,1.60
2024-03-30T03:18:23.721Z,1.20
2024-03-30T03:19:23.718Z,1.00
2024-03-30T03:20:23.727Z,1.60
2024-03-30T03:21:23.710Z,1.20
2024-03-30T03:22:23.705Z,1.30
2024-03-30T03:23:23.706Z,0.90
2024-03-30T03:24:23.671Z,1.70
2024-03-30T03:25:23.713Z,1.70
2024-03-30T03:26:23.661Z,1.50
2024-03-30T03:27:23.647Z,1.00
2024-03-30T03:28:23.655Z,1.60
2024-03-30T03:29:23.619Z,1.00
2024-03-30T03:30:23.607Z,1.40
2024-03-30T03:31:23.685Z,1.50
2024-03-30T03:32:23.665Z,0.80
2024-03-30T03:33:23.572Z,1.20
2024-03-30T03:34:23.564Z,1.40
2024-03-30T03:35:23.580Z,1.50
2024-03-30T03:36:23.563Z,1.20
2024-03-30T03:37:23.579Z,1.20
2024-03-30T03:38:23.511Z,1.60
2024-03-30T03:39:23.527Z,1.40
2024-03-30T03:40:23.534Z,1.40
2024-03-30T03:41:23.565Z,1.40
2024-03-30T03:42:23.498Z,1.00
2024-03-30T03:43:23.484Z,1.60
2024-03-30T03:44:23.457Z,0.90
2024-03-30T03:45:23.466Z,1.00
2024-03-30T03:46:23.464Z,1.50
2024-03-30T03:47:23.422Z,1.70
2024-03-30T03:48:23.423Z,1.40
2024-03-30T03:49:23.428Z,1.40
2024-03-30T03:50:23.414Z,1.20
2024-03-30T03:51:23.386Z,1.70
2024-03-30T03:52:23.399Z,1.60
2024-03-30T03:53:23.370Z,1.30
2024-03-30T03:54:23.374Z,1.30
2024-03-30T03:55:23.355Z,1.40
2024-03-30T03:56:23.336Z,1.00
2024-03-30T03:57:23.313Z,1.20
2024-03-30T03:58:23.326Z,1.50
2024-03-30T03:59:23.353Z,1.80
2024-03-30T04:00:23.335Z,1.50
2024-03-30T04:01:23.337Z,1.70
2024-03-30T04:02:23.356Z,1.50
2024-03-30T04:03:23.266Z,1.20
2024-03-30T04:04:23.294Z,1.60
2024-03-30T04:05:23.257Z,1.70
2024-03-30T04:06:23.274Z,1.60
2024-03-30T04:07:23.258Z,0.90
2024-03-30T04:08:23.236Z,1.30
2024-03-30T04:09:23.228Z,1.20
2024-03-30T04:10:23.212Z,1.50
2024-03-30T04:11:23.163Z,1.60
2024-03-30T04:12:23.156Z,1.20
2024-03-30T04:13:23.161Z,1.40
2024-03-30T04:14:23.134Z,1.20
2024-03-30T04:15:23.113Z,1.60
2024-03-30T04:16:23.163Z,1.10
2024-03-30T04:17:23.123Z,1.40
2024-03-30T04:18:23.102Z,1.60
2024-03-30T04:19:23.082Z,1.50
2024-03-30T04:20:23.071Z,1.30
2024-03-30T04:21:23.054Z,1.50
2024-03-30T04:22:23.082Z,1.40
2024-03-30T04:23:23.047Z,1.00
2024-03-30T04:24:23.028Z,1.00
2024-03-30T04:25:23.033Z,1.50
2024-03-30T04:26:23.021Z,1.30
2024-03-30T04:27:23.011Z,1.10
2024-03-30T04:28:23.031Z,1.20
2024-03-30T04:29:23.000Z,1.20
2024-03-30T04:30:22.986Z,1.20
2024-03-30T04:31:22.947Z,1.20
2024-03-30T04:32:23.029Z,1.10
2024-03-30T04:33:22.938Z,1.10
2024-03-30T04:34:22.875Z,1.20
2024-03-30T04:35:22.896Z,1.50
2024-03-30T04:36:22.868Z,1.30
2024-03-30T04:37:22.848Z,1.50
2024-03-30T04:38:22.837Z,0.90
2024-03-30T04:39:22.824Z,1.10
2024-03-30T04:40:22.820Z,2.20
2024-03-30T04:41:22.834Z,2.50
2024-03-30T04:42:22.814Z,1.60
2024-03-30T04:43:22.787Z,1.50
2024-03-30T04:44:22.771Z,1.50
2024-03-30T04:45:22.756Z,1.30
2024-03-30T04:46:22.801Z,1.30
2024-03-30T04:47:22.729Z,1.40
2024-03-30T04:48:22.777Z,1.60
2024-03-30T04:49:22.705Z,1.30
2024-03-30T04:50:22.761Z,1.40
2024-03-30T04:51:22.759Z,1.40
2024-03-30T04:52:22.699Z,1.70
2024-03-30T04:53:22.822Z,1.30
2024-03-30T04:54:22.744Z,1.30
2024-03-30T04:55:22.724Z,1.20
2024-03-30T04:56:22.683Z,1.40
2024-03-30T04:57:22.645Z,1.40
2024-03-30T04:58:22.640Z,1.20
2024-03-30T04:59:22.803Z,1.20
2024-03-30T05:00:22.748Z,1.50
2024-03-30T05:01:22.624Z,1.00
2024-03-30T05:02:22.613Z,1.60
2024-03-30T05:03:22.601Z,1.70
2024-03-30T05:04:22.592Z,1.70
2024-03-30T05:05:22.591Z,1.30
2024-03-30T05:06:22.637Z,1.10
2024-03-30T05:07:22.538Z,1.70
2024-03-30T05:08:22.527Z,1.00
2024-03-30T05:09:22.526Z,1.50
2024-03-30T05:10:22.526Z,1.20
2024-03-30T05:11:22.503Z,1.60
2024-03-30T05:12:22.471Z,1.20
2024-03-30T05:13:22.486Z,1.30
2024-03-30T05:14:22.462Z,1.30
2024-03-30T05:15:22.487Z,1.30
2024-03-30T05:16:22.446Z,1.40
2024-03-30T05:17:22.427Z,1.20
2024-03-30T05:18:22.455Z,1.00
2024-03-30T05:19:22.436Z,1.20
2024-03-30T05:20:22.392Z,1.20
2024-03-30T05:21:22.392Z,1.10
2024-03-30T05:22:22.374Z,1.40
2024-03-30T05:23:22.361Z,1.40
2024-03-30T05:24:22.364Z,1.40
2024-03-30T05:25:22.401Z,1.70
2024-03-30T05:26:22.345Z,1.60
2024-03-30T05:27:22.524Z,1.40
2024-03-30T05:28:22.354Z,1.60
2024-03-30T05:29:22.296Z,1.50
2024-03-30T05:30:22.289Z,1.40
2024-03-30T05:31:22.268Z,1.20
2024-03-30T05:32:22.280Z,1.40
2024-03-30T05:33:22.244Z,1.30
2024-03-30T05:34:22.250Z,1.40
2024-03-30T05:35:22.249Z,1.70
2024-03-30T05:36:22.240Z,1.60
2024-03-30T05:37:22.265Z,1.10
2024-03-30T05:38:22.218Z,1.30
2024-03-30T05:39:22.223Z,1.30
2024-03-30T05:40:22.213Z,1.40
2024-03-30T05:41:22.193Z,1.50
2024-03-30T05:42:22.190Z,1.50
2024-03-30T05:43:22.154Z,1.40
2024-03-30T05:44:22.176Z,1.90
2024-03-30T05:45:22.151Z,1.20
2024-03-30T05:46:22.139Z,1.30
2024-03-30T05:47:22.096Z,1.40
2024-03-30T05:48:22.090Z,1.40
2024-03-30T05:49:22.083Z,1.40
2024-03-30T05:50:22.106Z,1.40
2024-03-30T05:51:22.112Z,1.60
2024-03-30T05:52:22.052Z,1.90
2024-03-30T05:53:22.091Z,1.80
2024-03-30T05:54:22.034Z,1.40
2024-03-30T05:55:22.040Z,1.70
2024-03-30T05:56:22.036Z,2.00
2024-03-30T05:57:21.996Z,2.70
2024-03-30T05:58:21.986Z,2.50
2024-03-30T05:59:21.983Z,1.50
2024-03-30T06:00:21.978Z,1.60
2024-03-30T06:01:21.971Z,1.70
2024-03-30T06:02:21.983Z,1.60
2024-03-30T06:03:21.948Z,1.50
2024-03-30T06:04:21.925Z,1.50
2024-03-30T06:05:21.925Z,1.30
2024-03-30T06:06:21.957Z,1.50
2024-03-30T06:07:21.946Z,1.40
2024-03-30T06:08:21.923Z,1.40
2024-03-30T06:09:21.961Z,2.00
2024-03-30T06:10:21.962Z,1.90
2024-03-30T06:11:21.938Z,1.20
2024-03-30T06:12:21.870Z,1.30
2024-03-30T06:13:21.859Z,1.60
2024-03-30T06:14:21.856Z,1.70
2024-03-30T06:15:21.885Z,1.50
2024-03-30T06:16:21.794Z,1.10
2024-03-30T06:17:21.782Z,1.30
2024-03-30T06:18:21.779Z,1.40
2024-03-30T06:19:21.782Z,1.60
2024-03-30T06:20:21.802Z,1.60
2024-03-30T06:21:22.706Z,1.30
2024-03-30T06:22:21.751Z,1.50
2024-03-30T06:23:21.754Z,1.50
2024-03-30T06:24:21.747Z,1.30
2024-03-30T06:25:21.720Z,1.40
2024-03-30T06:26:21.706Z,1.30
2024-03-30T06:27:21.691Z,1.40
2024-03-30T06:28:21.743Z,1.10
2024-03-30T06:29:23.698Z,1.60
2024-03-30T06:30:21.662Z,1.20
2024-03-30T06:31:21.643Z,0.90
2024-03-30T06:32:21.644Z,1.70
2024-03-30T06:33:21.637Z,1.40
2024-03-30T06:34:21.626Z,1.80
2024-03-30T06:35:21.606Z,1.90
2024-03-30T06:36:21.641Z,1.70
2024-03-30T06:37:21.594Z,1.50
2024-03-30T06:38:21.600Z,1.70
2024-03-30T06:39:21.558Z,1.40
2024-03-30T06:40:21.548Z,1.30
2024-03-30T06:41:21.547Z,1.30
2024-03-30T06:42:21.541Z,1.40
2024-03-30T06:43:21.509Z,1.70
2024-03-30T06:44:21.519Z,1.40
2024-03-30T06:45:21.503Z,1.00
2024-03-30T06:46:21.523Z,1.30
2024-03-30T06:47:21.508Z,1.30
2024-03-30T06:48:21.476Z,0.70
2024-03-30T06:49:21.523Z,0.90
2024-03-30T06:50:21.443Z,1.20
2024-03-30T06:51:21.526Z,1.30
2024-03-30T06:52:21.430Z,1.10
2024-03-30T06:53:21.401Z,1.10
2024-03-30T06:54:21.426Z,1.80
2024-03-30T06:55:21.392Z,0.90
2024-03-30T06:56:21.386Z,1.10
2024-03-30T06:57:21.393Z,1.70
2024-03-30T06:58:21.359Z,1.10
2024-03-30T06:59:21.365Z,1.40
2024-03-30T07:00:21.364Z,1.10
2024-03-30T07:01:21.331Z,1.00
2024-03-30T07:02:21.322Z,1.20
2024-03-30T07:03:21.343Z,0.80
2024-03-30T07:04:21.337Z,1.10
2024-03-30T07:05:21.311Z,1.40
2024-03-30T07:06:21.277Z,1.10
2024-03-30T07:07:21.252Z,1.10
2024-03-30T07:08:21.257Z,0.90
2024-03-30T07:09:21.252Z,0.90
2024-03-30T07:10:21.240Z,0.80
2024-03-30T07:11:21.215Z,1.00
2024-03-30T07:12:21.296Z,0.80
2024-03-30T07:13:21.226Z,1.10
2024-03-30T07:14:21.181Z,1.00
2024-03-30T07:15:21.217Z,0.90
2024-03-30T07:16:21.186Z,0.90
2024-03-30T07:17:21.147Z,1.10
2024-03-30T07:18:21.149Z,1.20
2024-03-30T07:19:21.199Z,1.10
2024-03-30T07:20:21.156Z,1.30
2024-03-30T07:21:21.150Z,1.30
2024-03-30T07:22:21.205Z,1.00
2024-03-30T07:23:21.089Z,1.10
2024-03-30T07:24:21.124Z,0.80
2024-03-30T07:25:21.077Z,1.30
2024-03-30T07:26:21.108Z,1.10
2024-03-30T07:27:21.052Z,0.80
2024-03-30T07:28:21.066Z,1.30
2024-03-30T07:29:21.096Z,1.40
2024-03-30T07:30:21.046Z,0.90
2024-03-30T07:31:21.018Z,0.90
2024-03-30T07:32:21.007Z,0.70
2024-03-30T07:33:20.981Z,1.00
2024-03-30T07:34:21.019Z,0.80
2024-03-30T07:35:20.954Z,1.00
2024-03-30T07:36:20.948Z,1.00
2024-03-30T07:37:20.952Z,1.70
2024-03-30T07:38:20.964Z,1.30
2024-03-30T07:39:20.942Z,1.00
2024-03-30T07:40:20.919Z,0.80
2024-03-30T07:41:20.985Z,0.70
2024-03-30T07:42:20.892Z,1.10
2024-03-30T07:43:20.882Z,1.00
2024-03-30T07:44:20.959Z,0.90
2024-03-30T07:45:20.864Z,1.40
2024-03-30T07:46:20.857Z,1.00
2024-03-30T07:47:20.865Z,1.30
2024-03-30T07:48:20.860Z,1.40
2024-03-30T07:49:20.820Z,1.30
2024-03-30T07:50:20.862Z,1.20
2024-03-30T07:51:20.813Z,1.50
2024-03-30T07:52:20.801Z,1.10
2024-03-30T07:53:20.825Z,1.30
2024-03-30T07:54:20.818Z,1.30
2024-03-30T07:55:20.768Z,1.40
2024-03-30T07:56:20.763Z,1.10
2024-03-30T07:57:20.739Z,0.90
2024-03-30T07:58:20.747Z,1.20
2024-03-30T07:59:20.719Z,0.90
2024-03-30T08:00:20.697Z,1.00
2024-03-30T08:01:20.683Z,1.20
2024-03-30T08:02:20.706Z,1.40
2024-03-30T08:03:20.676Z,1.00
2024-03-30T08:04:20.668Z,1.20
2024-03-30T08:05:20.644Z,1.30
2024-03-30T08:06:20.635Z,1.20
2024-03-30T08:07:20.647Z,1.40
2024-03-30T08:08:20.613Z,1.10
2024-03-30T08:09:20.603Z,1.50
2024-03-30T08:10:20.621Z,1.80
2024-03-30T08:11:21.656Z,1.90
2024-03-30T08:12:20.588Z,1.70
2024-03-30T08:13:20.581Z,3.70
2024-03-30T08:14:20.551Z,2.00
2024-03-30T08:15:20.598Z,2.20
2024-03-30T08:16:20.563Z,2.30
2024-03-30T08:17:20.514Z,2.00
2024-03-30T08:18:20.519Z,2.10
2024-03-30T08:19:20.524Z,2.20
2024-03-30T08:20:20.492Z,2.20
2024-03-30T08:21:20.536Z,2.20
2024-03-30T08:22:20.488Z,2.00
2024-03-30T08:23:20.457Z,2.40
2024-03-30T08:24:20.437Z,2.20
2024-03-30T08:25:20.501Z,1.70
2024-03-30T08:26:20.471Z,1.90
2024-03-30T08:27:21.675Z,1.90
2024-03-30T08:28:20.418Z,2.70
2024-03-30T08:29:20.420Z,1.80
2024-03-30T08:30:20.436Z,1.80
2024-03-30T08:31:20.393Z,1.60
2024-03-30T08:32:20.358Z,2.10
2024-03-30T08:33:20.403Z,3.50
2024-03-30T08:34:21.801Z,2.10
2024-03-30T08:35:20.374Z,2.20
2024-03-30T08:36:20.333Z,1.90
2024-03-30T08:37:20.301Z,2.00
2024-03-30T08:38:20.330Z,1.90
2024-03-30T08:39:20.314Z,1.70
2024-03-30T08:40:20.351Z,2.00
2024-03-30T08:41:20.285Z,1.70
2024-03-30T08:42:22.458Z,1.80
2024-03-30T08:43:20.278Z,2.00
2024-03-30T08:44:20.268Z,2.00
2024-03-30T08:45:20.239Z,1.60
2024-03-30T08:46:20.223Z,1.50
2024-03-30T08:47:20.202Z,1.50
2024-03-30T08:48:20.241Z,2.00
2024-03-30T08:49:20.270Z,1.90
2024-03-30T08:50:20.196Z,2.10
2024-03-30T08:51:20.175Z,1.70
2024-03-30T08:52:20.169Z,1.40
2024-03-30T08:53:20.175Z,2.10
2024-03-30T08:54:20.183Z,1.90
2024-03-30T08:55:20.136Z,2.00
2024-03-30T08:56:20.126Z,1.70
2024-03-30T08:57:20.128Z,1.90
2024-03-30T08:58:20.158Z,2.10
2024-03-30T08:59:20.075Z,2.00
2024-03-30T09:00:20.066Z,2.20
2024-03-30T09:01:20.081Z,2.10
2024-03-30T09:02:20.084Z,1.90
2024-03-30T09:03:20.058Z,1.80
2024-03-30T09:04:20.050Z,1.60
2024-03-30T09:05:20.055Z,1.70
2024-03-30T09:06:20.629Z,2.00
2024-03-30T09:07:20.087Z,1.90
2024-03-30T09:08:20.079Z,1.70
2024-03-30T09:09:19.993Z,1.30
2024-03-30T09:10:19.970Z,1.90
2024-03-30T09:11:19.972Z,2.00
2024-03-30T09:12:20.651Z,2.10
2024-03-30T09:13:19.954Z,1.80
2024-03-30T09:14:19.910Z,1.60
2024-03-30T09:15:19.913Z,1.90
2024-03-30T09:16:19.898Z,1.40
2024-03-30T09:17:19.895Z,1.80
2024-03-30T09:18:19.924Z,1.80
2024-03-30T09:19:19.860Z,1.50
2024-03-30T09:20:19.844Z,1.60
2024-03-30T09:21:19.847Z,1.70
2024-03-30T09:22:19.887Z,1.70
2024-03-30T09:23:19.848Z,1.40
2024-03-30T09:24:19.859Z,1.50
2024-03-30T09:25:19.825Z,1.80
2024-03-30T09:26:19.943Z,1.10
2024-03-30T09:27:19.822Z,1.30
2024-03-30T09:28:19.784Z,1.70
2024-03-30T09:29:19.764Z,1.40
2024-03-30T09:30:19.751Z,1.60
2024-03-30T09:31:19.747Z,1.70
2024-03-30T09:32:19.736Z,1.80
2024-03-30T09:33:19.776Z,1.80
2024-03-30T09:34:33.630Z,1.50
2024-03-30T09:35:19.701Z,1.60
2024-03-30T09:36:20.500Z,1.90
2024-03-30T09:37:19.670Z,1.70
2024-03-30T09:38:19.675Z,1.40
2024-03-30T09:39:19.659Z,1.30
2024-03-30T09:40:19.695Z,1.60
2024-03-30T09:41:19.684Z,2.10
2024-03-30T09:42:19.629Z,1.60
2024-03-30T09:43:19.620Z,1.80
2024-03-30T09:44:19.648Z,1.30
2024-03-30T09:45:19.622Z,1.40
2024-03-30T09:46:19.590Z,1.30
2024-03-30T09:47:19.625Z,1.70
2024-03-30T09:48:19.556Z,1.40
2024-03-30T09:49:19.568Z,2.00
2024-03-30T09:50:19.569Z,2.30
2024-03-30T09:51:19.529Z,2.20
2024-03-30T09:52:19.501Z,1.60
2024-03-30T09:53:19.538Z,1.70
2024-03-30T09:54:19.501Z,1.50
2024-03-30T09:55:19.565Z,1.70
2024-03-30T09:56:19.496Z,1.60
2024-03-30T09:57:19.459Z,1.40
2024-03-30T09:58:19.483Z,1.70
2024-03-30T09:59:19.464Z,1.80
2024-03-30T10:00:19.440Z,1.80
2024-03-30T10:01:19.429Z,2.30
2024-03-30T10:02:19.413Z,1.70
2024-03-30T10:03:19.438Z,1.80
2024-03-30T10:04:19.456Z,2.00
2024-03-30T10:05:32.693Z,2.20
2024-03-30T10:06:19.431Z,2.70
2024-03-30T10:07:19.412Z,2.20
2024-03-30T10:08:19.351Z,2.10
2024-03-30T10:09:19.352Z,2.10
2024-03-30T10:10:19.393Z,1.70
2024-03-30T10:11:19.318Z,1.90
2024-03-30T10:12:19.290Z,2.10
2024-03-30T10:13:19.306Z,2.30
2024-03-30T10:14:19.294Z,2.30
2024-03-30T10:15:19.273Z,2.40
2024-03-30T10:16:19.438Z,1.80
2024-03-30T10:17:19.258Z,2.00
2024-03-30T10:18:19.253Z,2.00
2024-03-30T10:19:19.258Z,1.90
2024-03-30T10:20:19.201Z,1.80
2024-03-30T10:21:19.196Z,2.00
2024-03-30T10:22:19.206Z,2.30
2024-03-30T10:23:19.274Z,1.90
2024-03-30T10:24:19.184Z,2.00
2024-03-30T10:25:19.176Z,1.90
2024-03-30T10:26:19.151Z,2.40
2024-03-30T10:27:19.164Z,2.30
2024-03-30T10:28:19.136Z,2.00
2024-03-30T10:29:19.266Z,2.10
2024-03-30T10:30:19.120Z,1.90
2024-03-30T10:31:19.130Z,2.20
2024-03-30T10:32:19.166Z,2.00
2024-03-30T10:33:19.094Z,2.60
2024-03-30T10:34:19.079Z,2.00
2024-03-30T10:35:19.052Z,2.20
2024-03-30T10:36:19.113Z,2.00
2024-03-30T10:37:19.042Z,2.20
2024-03-30T10:38:19.027Z,2.10
2024-03-30T10:39:19.027Z,2.10
2024-03-30T10:40:18.989Z,2.50
2024-03-30T10:41:19.013Z,2.30
2024-03-30T10:42:18.970Z,2.40
2024-03-30T10:43:19.891Z,2.20
2024-03-30T10:44:18.993Z,2.10
2024-03-30T10:45:18.966Z,1.90
2024-03-30T10:46:18.952Z,2.20
2024-03-30T10:47:18.966Z,2.60
2024-03-30T10:48:18.912Z,2.90
2024-03-30T10:49:18.907Z,2.30
2024-03-30T10:50:21.940Z,2.20
2024-03-30T10:51:18.924Z,2.50
2024-03-30T10:52:18.890Z,2.20
2024-03-30T10:53:18.887Z,2.10
2024-03-30T10:54:18.856Z,2.00
2024-03-30T10:55:18.880Z,2.20
2024-03-30T10:56:21.668Z,2.20
2024-03-30T10:57:18.816Z,2.10
2024-03-30T10:58:18.848Z,2.70
2024-03-30T10:59:18.832Z,2.20
2024-03-30T11:00:18.792Z,2.30
2024-03-30T11:01:18.784Z,2.10
2024-03-30T11:02:19.682Z,2.00
2024-03-30T11:03:18.754Z,2.30
2024-03-30T11:04:18.755Z,2.40
2024-03-30T11:05:18.781Z,2.40
2024-03-30T11:06:18.737Z,2.20
2024-03-30T11:07:18.714Z,2.70
2024-03-30T11:08:18.718Z,2.50
2024-03-30T11:09:18.719Z,2.10
2024-03-30T11:10:18.692Z,2.20
2024-03-30T11:11:18.678Z,2.90
2024-03-30T11:12:18.676Z,2.60
2024-03-30T11:13:18.662Z,2.50
2024-03-30T11:14:18.697Z,2.20
2024-03-30T11:15:18.679Z,2.70
2024-03-30T11:16:18.635Z,2.90
2024-03-30T11:17:18.612Z,2.30
2024-03-30T11:18:21.068Z,3.00
2024-03-30T11:19:18.689Z,2.90
2024-03-30T11:20:18.587Z,2.80
2024-03-30T11:21:18.587Z,2.90
2024-03-30T11:22:18.570Z,2.80
2024-03-30T11:23:18.614Z,2.90
2024-03-30T11:24:20.570Z,2.70
2024-03-30T11:25:18.557Z,3.20
2024-03-30T11:26:18.537Z,3.30
2024-03-30T11:27:18.497Z,3.00
2024-03-30T11:28:18.524Z,3.10
2024-03-30T11:29:18.508Z,3.00
2024-03-30T11:30:18.493Z,3.50
2024-03-30T11:31:18.638Z,3.70
2024-03-30T11:32:18.467Z,2.80
2024-03-30T11:33:18.508Z,3.20
2024-03-30T11:34:18.455Z,3.00
2024-03-30T11:35:18.452Z,2.90
2024-03-30T11:36:18.417Z,3.80
2024-03-30T11:37:18.486Z,2.90
2024-03-30T11:38:26.464Z,5.50
2024-03-30T11:39:18.374Z,3.50
2024-03-30T11:40:19.896Z,3.10
2024-03-30T11:41:18.370Z,3.00
2024-03-30T11:42:18.358Z,3.30
2024-03-30T11:43:18.324Z,3.70
2024-03-30T11:44:18.379Z,3.40
2024-03-30T11:45:18.316Z,3.90
2024-03-30T11:46:18.323Z,4.40
2024-03-30T11:47:18.326Z,3.70
2024-03-30T11:48:18.277Z,3.50
2024-03-30T11:49:18.289Z,3.30
2024-03-30T11:50:18.248Z,3.40
2024-03-30T11:51:18.280Z,3.30
2024-03-30T11:52:18.235Z,3.50
2024-03-30T11:53:18.267Z,3.20
2024-03-30T11:54:18.228Z,3.20
2024-03-30T11:55:18.232Z,3.70
2024-03-30T11:56:18.213Z,3.30
2024-03-30T11:57:24.191Z,3.30
2024-03-30T11:58:18.173Z,3.70
2024-03-30T11:59:18.158Z,3.40
2024-03-30T12:00:18.187Z,3.30
2024-03-30T12:01:18.181Z,3.80
2024-03-30T12:02:18.150Z,3.60
2024-03-30T12:03:18.141Z,4.10
2024-03-30T12:04:18.156Z,3.10
2024-03-30T12:05:18.184Z,4.00
2024-03-30T12:06:18.133Z,3.80
2024-03-30T12:07:18.080Z,3.60
2024-03-30T12:08:18.085Z,3.60
2024-03-30T12:09:18.081Z,3.50
2024-03-30T12:10:18.080Z,3.50
2024-03-30T12:11:18.037Z,3.10
2024-03-30T12:12:18.047Z,3.10
2024-03-30T12:13:18.051Z,3.30
2024-03-30T12:14:18.129Z,3.00
2024-03-30T12:15:18.169Z,3.20
2024-03-30T12:16:18.027Z,3.30
2024-03-30T12:17:17.989Z,3.10
2024-03-30T12:18:17.990Z,3.10
2024-03-30T12:19:18.034Z,2.70
2024-03-30T12:20:18.008Z,2.90
2024-03-30T12:21:17.930Z,2.50
2024-03-30T12:22:17.931Z,2.20
2024-03-30T12:23:17.941Z,2.40
2024-03-30T12:24:17.984Z,2.00
2024-03-30T12:25:17.955Z,2.30
2024-03-30T12:26:17.886Z,1.80
2024-03-30T12:27:17.890Z,1.70
2024-03-30T12:28:17.887Z,2.40
2024-03-30T12:29:25.078Z,1.90
2024-03-30T12:30:17.855Z,2.10
2024-03-30T12:31:17.835Z,2.00
2024-03-30T12:32:17.908Z,1.90
2024-03-30T12:33:17.831Z,1.80
2024-03-30T12:34:17.792Z,2.00
2024-03-30T12:35:17.803Z,2.20
2024-03-30T12:36:17.819Z,1.90
2024-03-30T12:37:17.815Z,1.60
2024-03-30T12:38:17.759Z,2.00
2024-03-30T12:39:17.788Z,1.90
2024-03-30T12:40:17.740Z,2.10
2024-03-30T12:41:17.717Z,1.80
2024-03-30T12:42:17.729Z,1.90
2024-03-30T12:43:17.713Z,2.50
2024-03-30T12:44:20.789Z,2.10
2024-03-30T12:45:17.685Z,2.10
2024-03-30T12:46:17.702Z,2.20
2024-03-30T12:47:17.682Z,2.30
2024-03-30T12:48:17.653Z,2.10
2024-03-30T12:49:24.250Z,2.10
2024-03-30T12:50:17.639Z,2.20
2024-03-30T12:51:17.682Z,2.80
2024-03-30T12:52:17.603Z,2.90
2024-03-30T12:53:17.582Z,2.60
2024-03-30T12:54:17.582Z,2.10
2024-03-30T12:55:17.586Z,2.70
2024-03-30T12:56:17.580Z,2.90
2024-03-30T12:57:17.716Z,3.00
2024-03-30T12:58:17.527Z,2.70
2024-03-30T12:59:17.548Z,2.50
2024-03-30T13:00:17.738Z,2.20
2024-03-30T13:01:17.540Z,2.30
2024-03-30T13:02:17.569Z,2.00
2024-03-30T13:03:17.504Z,2.40
2024-03-30T13:04:17.492Z,2.00
2024-03-30T13:05:17.473Z,1.40
2024-03-30T13:06:17.535Z,1.60
2024-03-30T13:07:17.464Z,2.30
2024-03-30T13:08:17.483Z,1.70
2024-03-30T13:09:17.418Z,4.00
2024-03-30T13:10:17.425Z,1.60
2024-03-30T13:11:17.416Z,1.50
2024-03-30T13:12:17.415Z,1.00
2024-03-30T13:13:17.377Z,1.00
2024-03-30T13:14:17.368Z,1.20
2024-03-30T13:15:17.399Z,1.40
2024-03-30T13:16:17.337Z,1.40
2024-03-30T13:17:17.345Z,1.20
2024-03-30T13:18:17.402Z,1.50